Time;durP1;ratioP1;P1;durP2;ratioP2;P2;SDS_P1;SDS_P2;PMS_P1;PMS_P2;Temp;Humidity;BMP_temperature;BMP_pressure;BME280_temperature;BME280_humidity;BME280_pressure;Samples;Min_cycle;Max_cycle;Signal;HPM_P1;HPM_P2
2021/01/11 00:00:29;;;;;;;47.14999;19.45;;;;;;;-4.49;79.76855;95563.65;;;;
2021/01/11 00:01:30;;;;;;;47.14999;19.45;;;;;;;-4.49;79.76855;95563.65;;;;
2021/01/11 00:02:30;;;;;;;47.14999;19.45;;;;;;;-4.49;79.76855;95563.65;;;;
2021/01/11 00:03:31;;;;;;;44.2;19.4;;;;;;;-4.57;79.73145;95571.43;;;;
2021/01/11 00:04:31;;;;;;;44.2;19.4;;;;;;;-4.57;79.73145;95571.43;;;;
2021/01/11 00:05:32;;;;;;;44.2;19.4;;;;;;;-4.57;79.73145;95571.43;;;;
2021/01/11 00:06:32;;;;;;;44.2;19.4;;;;;;;-4.57;79.73145;95571.43;;;;
2021/01/11 00:07:37;;;;;;;44.2;19.4;;;;;;;-4.57;79.73145;95571.43;;;;
2021/01/11 00:08:39;;;;;;;44.2;19.4;;;;;;;-4.57;79.73145;95571.43;;;;
2021/01/11 00:09:40;;;;;;;44.2;19.4;;;;;;;-4.57;79.73145;95571.43;;;;
2021/01/11 00:10:40;;;;;;;44.2;19.4;;;;;;;-4.57;79.73145;95571.43;;;;
2021/01/11 00:11:41;;;;;;;44.2;19.4;;;;;;;-4.57;79.73145;95571.43;;;;
2021/01/11 00:12:41;;;;;;;44.2;19.4;;;;;;;-4.57;79.73145;95571.43;;;;
2021/01/11 00:13:44;;;;;;;46.8;19.05;;;;;;;-4.65;79.91113;95569.11;;;;
2021/01/11 00:14:44;;;;;;;46.8;19.05;;;;;;;-4.65;79.91113;95569.11;;;;
2021/01/11 00:15:45;;;;;;;46.8;19.05;;;;;;;-4.65;79.91113;95569.11;;;;
2021/01/11 00:16:45;;;;;;;46.8;19.05;;;;;;;-4.65;79.91113;95569.11;;;;
2021/01/11 00:17:45;;;;;;;46.8;19.05;;;;;;;-4.65;79.91113;95569.11;;;;
2021/01/11 00:18:46;;;;;;;46.8;19.05;;;;;;;-4.65;79.91113;95569.11;;;;
2021/01/11 00:19:46;;;;;;;46.8;19.05;;;;;;;-4.65;79.91113;95569.11;;;;
2021/01/11 00:20:47;;;;;;;46.8;19.05;;;;;;;-4.65;79.91113;95569.11;;;;
2021/01/11 00:21:47;;;;;;;46.8;19.05;;;;;;;-4.65;79.91113;95569.11;;;;
2021/01/11 00:22:48;;;;;;;46.8;19.05;;;;;;;-4.65;79.91113;95569.11;;;;
2021/01/11 00:23:49;;;;;;;46.8;19.05;;;;;;;-4.65;79.91113;95569.11;;;;
2021/01/11 00:24:49;;;;;;;45.2;19;;;;;;;-4.63;80.13086;95573.77;;;;
2021/01/11 00:25:50;;;;;;;45.2;19;;;;;;;-4.63;80.13086;95573.77;;;;
2021/01/11 00:26:51;;;;;;;45.2;19;;;;;;;-4.63;80.13086;95573.77;;;;
2021/01/11 00:27:52;;;;;;;45.2;19;;;;;;;-4.63;80.13086;95573.77;;;;
2021/01/11 00:28:53;;;;;;;45.2;19;;;;;;;-4.63;80.13086;95573.77;;;;
2021/01/11 00:29:53;;;;;;;45.2;19;;;;;;;-4.63;80.13086;95573.77;;;;
2021/01/11 00:30:54;;;;;;;45.2;19;;;;;;;-4.63;80.13086;95573.77;;;;
2021/01/11 00:31:54;;;;;;;45.2;19;;;;;;;-4.63;80.13086;95573.77;;;;
2021/01/11 00:32:56;;;;;;;45.2;19;;;;;;;-4.63;80.13086;95573.77;;;;
2021/01/11 00:33:57;;;;;;;45.2;19;;;;;;;-4.63;80.13086;95573.77;;;;
2021/01/11 00:34:58;;;;;;;45.2;19;;;;;;;-4.63;80.13086;95573.77;;;;
2021/01/11 00:35:58;;;;;;;46.69999;18.4;;;;;;;-4.57;80.13379;95576.28;;;;
2021/01/11 00:36:59;;;;;;;46.69999;18.4;;;;;;;-4.57;80.13379;95576.28;;;;
2021/01/11 00:37:59;;;;;;;46.69999;18.4;;;;;;;-4.57;80.13379;95576.28;;;;
2021/01/11 00:39:00;;;;;;;46.69999;18.4;;;;;;;-4.57;80.13379;95576.28;;;;
2021/01/11 00:40:00;;;;;;;46.69999;18.4;;;;;;;-4.57;80.13379;95576.28;;;;
2021/01/11 00:41:01;;;;;;;46.69999;18.4;;;;;;;-4.57;80.13379;95576.28;;;;
2021/01/11 00:42:01;;;;;;;46.69999;18.4;;;;;;;-4.57;80.13379;95576.28;;;;
2021/01/11 00:43:03;;;;;;;46.69999;18.4;;;;;;;-4.57;80.13379;95576.28;;;;
2021/01/11 00:44:03;;;;;;;46.69999;18.4;;;;;;;-4.57;80.13379;95576.28;;;;
2021/01/11 00:45:05;;;;;;;46.69999;18.4;;;;;;;-4.57;80.13379;95576.28;;;;
2021/01/11 00:46:08;;;;;;;44.95;18.15;;;;;;;-4.62;80.04199;95573.21;;;;
2021/01/11 00:47:09;;;;;;;44.95;18.15;;;;;;;-4.62;80.04199;95573.21;;;;
2021/01/11 00:48:09;;;;;;;44.95;18.15;;;;;;;-4.62;80.04199;95573.21;;;;
2021/01/11 00:49:10;;;;;;;44.95;18.15;;;;;;;-4.62;80.04199;95573.21;;;;
2021/01/11 00:50:11;;;;;;;44.95;18.15;;;;;;;-4.62;80.04199;95573.21;;;;
2021/01/11 00:51:12;;;;;;;44.95;18.15;;;;;;;-4.62;80.04199;95573.21;;;;
2021/01/11 00:52:12;;;;;;;44.95;18.15;;;;;;;-4.62;80.04199;95573.21;;;;
2021/01/11 00:53:13;;;;;;;44.95;18.15;;;;;;;-4.62;80.04199;95573.21;;;;
2021/01/11 00:54:13;;;;;;;44.95;18.15;;;;;;;-4.62;80.04199;95573.21;;;;
2021/01/11 00:55:14;;;;;;;44.95;18.15;;;;;;;-4.62;80.04199;95573.21;;;;
2021/01/11 00:56:14;;;;;;;44.95;18.15;;;;;;;-4.62;80.04199;95573.21;;;;
2021/01/11 00:57:16;;;;;;;43.49999;17.25;;;;;;;-4.76;80.0459;95572.28;;;;
2021/01/11 00:58:16;;;;;;;43.49999;17.25;;;;;;;-4.76;80.0459;95572.28;;;;
2021/01/11 00:59:17;;;;;;;43.49999;17.25;;;;;;;-4.76;80.0459;95572.28;;;;
2021/01/11 01:00:18;;;;;;;43.49999;17.25;;;;;;;-4.76;80.0459;95572.28;;;;
2021/01/11 01:01:20;;;;;;;43.49999;17.25;;;;;;;-4.76;80.0459;95572.28;;;;
2021/01/11 01:02:20;;;;;;;43.49999;17.25;;;;;;;-4.76;80.0459;95572.28;;;;
2021/01/11 01:03:21;;;;;;;43.49999;17.25;;;;;;;-4.76;80.0459;95572.28;;;;
2021/01/11 01:04:21;;;;;;;43.49999;17.25;;;;;;;-4.76;80.0459;95572.28;;;;
2021/01/11 01:05:22;;;;;;;43.49999;17.25;;;;;;;-4.76;80.0459;95572.28;;;;
2021/01/11 01:06:22;;;;;;;43.49999;17.25;;;;;;;-4.76;80.0459;95572.28;;;;
2021/01/11 01:07:23;;;;;;;39.1;17;;;;;;;-4.75;80.21094;95573.55;;;;
2021/01/11 01:08:24;;;;;;;39.1;17;;;;;;;-4.75;80.21094;95573.55;;;;
2021/01/11 01:09:24;;;;;;;39.1;17;;;;;;;-4.75;80.21094;95573.55;;;;
2021/01/11 01:10:25;;;;;;;39.1;17;;;;;;;-4.75;80.21094;95573.55;;;;
2021/01/11 01:11:27;;;;;;;39.1;17;;;;;;;-4.75;80.21094;95573.55;;;;
2021/01/11 01:12:27;;;;;;;39.1;17;;;;;;;-4.75;80.21094;95573.55;;;;
2021/01/11 01:13:28;;;;;;;39.1;17;;;;;;;-4.75;80.21094;95573.55;;;;
2021/01/11 01:14:28;;;;;;;39.1;17;;;;;;;-4.75;80.21094;95573.55;;;;
2021/01/11 01:15:29;;;;;;;39.1;17;;;;;;;-4.75;80.21094;95573.55;;;;
2021/01/11 01:16:29;;;;;;;39.1;17;;;;;;;-4.75;80.21094;95573.55;;;;
2021/01/11 01:17:29;;;;;;;39.1;17;;;;;;;-4.75;80.21094;95573.55;;;;
2021/01/11 01:18:30;;;;;;;36.8;15.25;;;;;;;-4.76;79.97363;95590.72;;;;
2021/01/11 01:19:31;;;;;;;36.8;15.25;;;;;;;-4.76;79.97363;95590.72;;;;
2021/01/11 01:20:31;;;;;;;36.8;15.25;;;;;;;-4.76;79.97363;95590.72;;;;
2021/01/11 01:21:31;;;;;;;36.8;15.25;;;;;;;-4.76;79.97363;95590.72;;;;
2021/01/11 01:22:32;;;;;;;36.8;15.25;;;;;;;-4.76;79.97363;95590.72;;;;
2021/01/11 01:23:32;;;;;;;36.8;15.25;;;;;;;-4.76;79.97363;95590.72;;;;
2021/01/11 01:24:33;;;;;;;36.8;15.25;;;;;;;-4.76;79.97363;95590.72;;;;
2021/01/11 01:25:33;;;;;;;36.8;15.25;;;;;;;-4.76;79.97363;95590.72;;;;
2021/01/11 01:26:34;;;;;;;36.8;15.25;;;;;;;-4.76;79.97363;95590.72;;;;
2021/01/11 01:27:34;;;;;;;36.8;15.25;;;;;;;-4.76;79.97363;95590.72;;;;
2021/01/11 01:28:35;;;;;;;43.6;17.85;;;;;;;-4.77;80.16797;95594.33;;;;
2021/01/11 01:29:35;;;;;;;43.6;17.85;;;;;;;-4.77;80.16797;95594.33;;;;
2021/01/11 01:30:36;;;;;;;43.6;17.85;;;;;;;-4.77;80.16797;95594.33;;;;
2021/01/11 01:31:37;;;;;;;43.6;17.85;;;;;;;-4.77;80.16797;95594.33;;;;
2021/01/11 01:32:37;;;;;;;43.6;17.85;;;;;;;-4.77;80.16797;95594.33;;;;
2021/01/11 01:33:39;;;;;;;43.6;17.85;;;;;;;-4.77;80.16797;95594.33;;;;
2021/01/11 01:34:39;;;;;;;43.6;17.85;;;;;;;-4.77;80.16797;95594.33;;;;
2021/01/11 01:35:39;;;;;;;43.6;17.85;;;;;;;-4.77;80.16797;95594.33;;;;
2021/01/11 01:36:40;;;;;;;43.6;17.85;;;;;;;-4.77;80.16797;95594.33;;;;
2021/01/11 01:37:40;;;;;;;43.6;17.85;;;;;;;-4.77;80.16797;95594.33;;;;
2021/01/11 01:38:41;;;;;;;43.6;17.85;;;;;;;-4.77;80.16797;95594.33;;;;
2021/01/11 01:39:42;;;;;;;37.8;16.15;;;;;;;-4.79;80;95595.79;;;;
2021/01/11 01:40:45;;;;;;;37.8;16.15;;;;;;;-4.79;80;95595.79;;;;
2021/01/11 01:41:45;;;;;;;37.8;16.15;;;;;;;-4.79;80;95595.79;;;;
2021/01/11 01:42:46;;;;;;;37.8;16.15;;;;;;;-4.79;80;95595.79;;;;
2021/01/11 01:43:46;;;;;;;37.8;16.15;;;;;;;-4.79;80;95595.79;;;;
2021/01/11 01:44:47;;;;;;;37.8;16.15;;;;;;;-4.79;80;95595.79;;;;
2021/01/11 01:45:48;;;;;;;37.8;16.15;;;;;;;-4.79;80;95595.79;;;;
2021/01/11 01:46:48;;;;;;;37.8;16.15;;;;;;;-4.79;80;95595.79;;;;
2021/01/11 01:47:49;;;;;;;37.8;16.15;;;;;;;-4.79;80;95595.79;;;;
2021/01/11 01:48:49;;;;;;;37.8;16.15;;;;;;;-4.79;80;95595.79;;;;
2021/01/11 01:49:50;;;;;;;49.05001;23.35;;;;;;;-4.85;79.93555;95582.73;;;;
2021/01/11 01:50:51;;;;;;;49.05001;23.35;;;;;;;-4.85;79.93555;95582.73;;;;
2021/01/11 01:51:51;;;;;;;49.05001;23.35;;;;;;;-4.85;79.93555;95582.73;;;;
2021/01/11 01:52:52;;;;;;;49.05001;23.35;;;;;;;-4.85;79.93555;95582.73;;;;
2021/01/11 01:53:53;;;;;;;49.05001;23.35;;;;;;;-4.85;79.93555;95582.73;;;;
2021/01/11 01:54:54;;;;;;;49.05001;23.35;;;;;;;-4.85;79.93555;95582.73;;;;
2021/01/11 01:55:55;;;;;;;49.05001;23.35;;;;;;;-4.85;79.93555;95582.73;;;;
2021/01/11 01:56:55;;;;;;;49.05001;23.35;;;;;;;-4.85;79.93555;95582.73;;;;
2021/01/11 01:57:56;;;;;;;49.05001;23.35;;;;;;;-4.85;79.93555;95582.73;;;;
2021/01/11 01:59:01;;;;;;;49.05001;23.35;;;;;;;-4.85;79.93555;95582.73;;;;
2021/01/11 02:00:03;;;;;;;49.05001;23.35;;;;;;;-4.85;79.93555;95582.73;;;;
2021/01/11 02:01:06;;;;;;;36.05;15.15;;;;;;;-4.86;80.58496;95572.68;;;;
2021/01/11 02:02:06;;;;;;;36.05;15.15;;;;;;;-4.86;80.58496;95572.68;;;;
2021/01/11 02:03:13;;;;;;;36.05;15.15;;;;;;;-4.86;80.58496;95572.68;;;;
2021/01/11 02:04:13;;;;;;;36.05;15.15;;;;;;;-4.86;80.58496;95572.68;;;;
2021/01/11 02:05:14;;;;;;;36.05;15.15;;;;;;;-4.86;80.58496;95572.68;;;;
2021/01/11 02:06:14;;;;;;;36.05;15.15;;;;;;;-4.86;80.58496;95572.68;;;;
2021/01/11 02:07:15;;;;;;;36.05;15.15;;;;;;;-4.86;80.58496;95572.68;;;;
2021/01/11 02:08:24;;;;;;;36.05;15.15;;;;;;;-4.86;80.58496;95572.68;;;;
2021/01/11 02:09:34;;;;;;;36.05;15.15;;;;;;;-4.86;80.58496;95572.68;;;;
2021/01/11 02:10:44;;;;;;;36.05;15.15;;;;;;;-4.86;80.58496;95572.68;;;;
2021/01/11 02:12:02;;;;;;;42.35001;16.15;;;;;;;-4.93;80.53906;95569.82;;;;
2021/01/11 02:13:08;;;;;;;42.35001;16.15;;;;;;;-4.93;80.53906;95569.82;;;;
2021/01/11 02:14:27;;;;;;;42.35001;16.15;;;;;;;-4.93;80.53906;95569.82;;;;
2021/01/11 02:15:39;;;;;;;42.35001;16.15;;;;;;;-4.93;80.53906;95569.82;;;;
2021/01/11 02:16:47;;;;;;;42.35001;16.15;;;;;;;-4.93;80.53906;95569.82;;;;
2021/01/11 02:17:55;;;;;;;42.35001;16.15;;;;;;;-4.93;80.53906;95569.82;;;;
2021/01/11 02:19:02;;;;;;;42.35001;16.15;;;;;;;-4.93;80.53906;95569.82;;;;
2021/01/11 02:20:26;;;;;;;42.35001;16.15;;;;;;;-4.93;80.53906;95569.82;;;;
2021/01/11 02:21:46;;;;;;;42.35001;16.15;;;;;;;-4.93;80.53906;95569.82;;;;
2021/01/11 02:23:03;;;;;;;39.15;16.25;;;;;;;-5;80.59668;95557.36;;;;
2021/01/11 02:24:26;;;;;;;39.15;16.25;;;;;;;-5;80.59668;95557.36;;;;
2021/01/11 02:25:52;;;;;;;39.15;16.25;;;;;;;-5;80.59668;95557.36;;;;
2021/01/11 02:27:02;;;;;;;39.15;16.25;;;;;;;-5;80.59668;95557.36;;;;
2021/01/11 02:28:19;;;;;;;39.15;16.25;;;;;;;-5;80.59668;95557.36;;;;
2021/01/11 02:29:37;;;;;;;39.15;16.25;;;;;;;-5;80.59668;95557.36;;;;
2021/01/11 02:30:59;;;;;;;39.15;16.25;;;;;;;-5;80.59668;95557.36;;;;
2021/01/11 02:32:04;;;;;;;39.15;16.25;;;;;;;-5;80.59668;95557.36;;;;
2021/01/11 02:33:06;;;;;;;40.8;16.9;;;;;;;-5.05;80.62012;95554.22;;;;
2021/01/11 02:34:08;;;;;;;40.8;16.9;;;;;;;-5.05;80.62012;95554.22;;;;
2021/01/11 02:35:09;;;;;;;40.8;16.9;;;;;;;-5.05;80.62012;95554.22;;;;
2021/01/11 02:36:12;;;;;;;40.8;16.9;;;;;;;-5.05;80.62012;95554.22;;;;
2021/01/11 02:37:13;;;;;;;40.8;16.9;;;;;;;-5.05;80.62012;95554.22;;;;
2021/01/11 02:38:15;;;;;;;40.8;16.9;;;;;;;-5.05;80.62012;95554.22;;;;
2021/01/11 02:39:17;;;;;;;40.8;16.9;;;;;;;-5.05;80.62012;95554.22;;;;
2021/01/11 02:40:18;;;;;;;40.8;16.9;;;;;;;-5.05;80.62012;95554.22;;;;
2021/01/11 02:41:19;;;;;;;40.8;16.9;;;;;;;-5.05;80.62012;95554.22;;;;
2021/01/11 02:42:19;;;;;;;40.8;16.9;;;;;;;-5.05;80.62012;95554.22;;;;
2021/01/11 02:43:20;;;;;;;39.25001;15.6;;;;;;;-5.06;80.95801;95545.99;;;;
2021/01/11 02:44:20;;;;;;;39.25001;15.6;;;;;;;-5.06;80.95801;95545.99;;;;
2021/01/11 02:45:21;;;;;;;39.25001;15.6;;;;;;;-5.06;80.95801;95545.99;;;;
2021/01/11 02:46:21;;;;;;;39.25001;15.6;;;;;;;-5.06;80.95801;95545.99;;;;
2021/01/11 02:47:23;;;;;;;39.25001;15.6;;;;;;;-5.06;80.95801;95545.99;;;;
2021/01/11 02:48:32;;;;;;;39.25001;15.6;;;;;;;-5.06;80.95801;95545.99;;;;
2021/01/11 02:49:35;;;;;;;39.25001;15.6;;;;;;;-5.06;80.95801;95545.99;;;;
2021/01/11 02:50:41;;;;;;;39.25001;15.6;;;;;;;-5.06;80.95801;95545.99;;;;
2021/01/11 02:51:50;;;;;;;39.25001;15.6;;;;;;;-5.06;80.95801;95545.99;;;;
2021/01/11 02:53:04;;;;;;;39.25001;15.6;;;;;;;-5.06;80.95801;95545.99;;;;
2021/01/11 02:54:11;;;;;;;39.25;16.7;;;;;;;-5.04;80.96191;95536.14;;;;
2021/01/11 02:55:17;;;;;;;39.25;16.7;;;;;;;-5.04;80.96191;95536.14;;;;
2021/01/11 02:56:24;;;;;;;39.25;16.7;;;;;;;-5.04;80.96191;95536.14;;;;
2021/01/11 02:57:32;;;;;;;39.25;16.7;;;;;;;-5.04;80.96191;95536.14;;;;
2021/01/11 02:58:44;;;;;;;39.25;16.7;;;;;;;-5.04;80.96191;95536.14;;;;
2021/01/11 03:00:06;;;;;;;39.25;16.7;;;;;;;-5.04;80.96191;95536.14;;;;
2021/01/11 03:01:09;;;;;;;39.25;16.7;;;;;;;-5.04;80.96191;95536.14;;;;
2021/01/11 03:02:14;;;;;;;39.25;16.7;;;;;;;-5.04;80.96191;95536.14;;;;
2021/01/11 03:03:17;;;;;;;39.25;16.7;;;;;;;-5.04;80.96191;95536.14;;;;
2021/01/11 03:04:20;;;;;;;39.25;16.7;;;;;;;-5.04;80.96191;95536.14;;;;
2021/01/11 03:05:24;;;;;;;38.35;16.9;;;;;;;-5.03;81.01563;95541.77;;;;
2021/01/11 03:06:25;;;;;;;38.35;16.9;;;;;;;-5.03;81.01563;95541.77;;;;
2021/01/11 03:07:29;;;;;;;38.35;16.9;;;;;;;-5.03;81.01563;95541.77;;;;
2021/01/11 03:08:29;;;;;;;38.35;16.9;;;;;;;-5.03;81.01563;95541.77;;;;
2021/01/11 03:09:30;;;;;;;38.35;16.9;;;;;;;-5.03;81.01563;95541.77;;;;
2021/01/11 03:10:32;;;;;;;38.35;16.9;;;;;;;-5.03;81.01563;95541.77;;;;
2021/01/11 03:11:33;;;;;;;38.35;16.9;;;;;;;-5.03;81.01563;95541.77;;;;
2021/01/11 03:12:34;;;;;;;38.35;16.9;;;;;;;-5.03;81.01563;95541.77;;;;
2021/01/11 03:13:35;;;;;;;38.35;16.9;;;;;;;-5.03;81.01563;95541.77;;;;
2021/01/11 03:14:35;;;;;;;38.35;16.9;;;;;;;-5.03;81.01563;95541.77;;;;
2021/01/11 03:15:37;;;;;;;45.45001;17.4;;;;;;;-5;80.88477;95552.09;;;;
2021/01/11 03:16:37;;;;;;;45.45001;17.4;;;;;;;-5;80.88477;95552.09;;;;
2021/01/11 03:17:38;;;;;;;45.45001;17.4;;;;;;;-5;80.88477;95552.09;;;;
2021/01/11 03:18:38;;;;;;;45.45001;17.4;;;;;;;-5;80.88477;95552.09;;;;
2021/01/11 03:19:39;;;;;;;45.45001;17.4;;;;;;;-5;80.88477;95552.09;;;;
2021/01/11 03:20:39;;;;;;;45.45001;17.4;;;;;;;-5;80.88477;95552.09;;;;
2021/01/11 03:21:40;;;;;;;45.45001;17.4;;;;;;;-5;80.88477;95552.09;;;;
2021/01/11 03:22:40;;;;;;;45.45001;17.4;;;;;;;-5;80.88477;95552.09;;;;
2021/01/11 03:23:41;;;;;;;45.45001;17.4;;;;;;;-5;80.88477;95552.09;;;;
2021/01/11 03:24:41;;;;;;;45.45001;17.4;;;;;;;-5;80.88477;95552.09;;;;
2021/01/11 03:25:42;;;;;;;45.45001;17.4;;;;;;;-5;80.88477;95552.09;;;;
2021/01/11 03:26:42;;;;;;;39.05;16.35;;;;;;;-5.03;80.78711;95550.14;;;;
2021/01/11 03:27:43;;;;;;;39.05;16.35;;;;;;;-5.03;80.78711;95550.14;;;;
2021/01/11 03:28:44;;;;;;;39.05;16.35;;;;;;;-5.03;80.78711;95550.14;;;;
2021/01/11 03:29:44;;;;;;;39.05;16.35;;;;;;;-5.03;80.78711;95550.14;;;;
2021/01/11 03:30:45;;;;;;;39.05;16.35;;;;;;;-5.03;80.78711;95550.14;;;;
2021/01/11 03:31:45;;;;;;;39.05;16.35;;;;;;;-5.03;80.78711;95550.14;;;;
2021/01/11 03:32:46;;;;;;;39.05;16.35;;;;;;;-5.03;80.78711;95550.14;;;;
2021/01/11 03:33:48;;;;;;;39.05;16.35;;;;;;;-5.03;80.78711;95550.14;;;;
2021/01/11 03:34:48;;;;;;;39.05;16.35;;;;;;;-5.03;80.78711;95550.14;;;;
2021/01/11 03:35:49;;;;;;;39.05;16.35;;;;;;;-5.03;80.78711;95550.14;;;;
2021/01/11 03:36:49;;;;;;;39.2;15.7;;;;;;;-5.04;80.80762;95545.34;;;;
2021/01/11 03:37:50;;;;;;;39.2;15.7;;;;;;;-5.04;80.80762;95545.34;;;;
2021/01/11 03:38:50;;;;;;;39.2;15.7;;;;;;;-5.04;80.80762;95545.34;;;;
2021/01/11 03:39:51;;;;;;;39.2;15.7;;;;;;;-5.04;80.80762;95545.34;;;;
2021/01/11 03:40:52;;;;;;;39.2;15.7;;;;;;;-5.04;80.80762;95545.34;;;;
2021/01/11 03:41:59;;;;;;;39.2;15.7;;;;;;;-5.04;80.80762;95545.34;;;;
2021/01/11 03:43:00;;;;;;;39.2;15.7;;;;;;;-5.04;80.80762;95545.34;;;;
2021/01/11 03:44:00;;;;;;;39.2;15.7;;;;;;;-5.04;80.80762;95545.34;;;;
2021/01/11 03:45:01;;;;;;;39.2;15.7;;;;;;;-5.04;80.80762;95545.34;;;;
2021/01/11 03:46:01;;;;;;;39.2;15.7;;;;;;;-5.04;80.80762;95545.34;;;;
2021/01/11 03:47:02;;;;;;;39.2;15.7;;;;;;;-5.04;80.80762;95545.34;;;;
2021/01/11 03:48:02;;;;;;;47.55;17.15;;;;;;;-5.04;80.88965;95546.28;;;;
2021/01/11 03:49:04;;;;;;;47.55;17.15;;;;;;;-5.04;80.88965;95546.28;;;;
2021/01/11 03:50:05;;;;;;;47.55;17.15;;;;;;;-5.04;80.88965;95546.28;;;;
2021/01/11 03:51:07;;;;;;;47.55;17.15;;;;;;;-5.04;80.88965;95546.28;;;;
2021/01/11 03:52:08;;;;;;;47.55;17.15;;;;;;;-5.04;80.88965;95546.28;;;;
2021/01/11 03:53:09;;;;;;;47.55;17.15;;;;;;;-5.04;80.88965;95546.28;;;;
2021/01/11 03:54:09;;;;;;;47.55;17.15;;;;;;;-5.04;80.88965;95546.28;;;;
2021/01/11 03:55:10;;;;;;;47.55;17.15;;;;;;;-5.04;80.88965;95546.28;;;;
2021/01/11 03:56:10;;;;;;;47.55;17.15;;;;;;;-5.04;80.88965;95546.28;;;;
2021/01/11 03:57:11;;;;;;;47.55;17.15;;;;;;;-5.04;80.88965;95546.28;;;;
2021/01/11 03:58:11;;;;;;;44.25;18.15;;;;;;;-5.02;80.94336;95540.88;;;;
2021/01/11 03:59:12;;;;;;;44.25;18.15;;;;;;;-5.02;80.94336;95540.88;;;;
2021/01/11 04:00:12;;;;;;;44.25;18.15;;;;;;;-5.02;80.94336;95540.88;;;;
2021/01/11 04:01:14;;;;;;;44.25;18.15;;;;;;;-5.02;80.94336;95540.88;;;;
2021/01/11 04:02:14;;;;;;;44.25;18.15;;;;;;;-5.02;80.94336;95540.88;;;;
2021/01/11 04:03:15;;;;;;;44.25;18.15;;;;;;;-5.02;80.94336;95540.88;;;;
2021/01/11 04:04:16;;;;;;;44.25;18.15;;;;;;;-5.02;80.94336;95540.88;;;;
2021/01/11 04:05:16;;;;;;;44.25;18.15;;;;;;;-5.02;80.94336;95540.88;;;;
2021/01/11 04:06:17;;;;;;;44.25;18.15;;;;;;;-5.02;80.94336;95540.88;;;;
2021/01/11 04:07:19;;;;;;;44.25;18.15;;;;;;;-5.02;80.94336;95540.88;;;;
2021/01/11 04:08:20;;;;;;;44.25;18.15;;;;;;;-5.02;80.94336;95540.88;;;;
2021/01/11 04:09:21;;;;;;;42.35;16.7;;;;;;;-5.02;80.88184;95532.08;;;;
2021/01/11 04:10:22;;;;;;;42.35;16.7;;;;;;;-5.02;80.88184;95532.08;;;;
2021/01/11 04:11:23;;;;;;;42.35;16.7;;;;;;;-5.02;80.88184;95532.08;;;;
2021/01/11 04:12:24;;;;;;;42.35;16.7;;;;;;;-5.02;80.88184;95532.08;;;;
2021/01/11 04:13:24;;;;;;;42.35;16.7;;;;;;;-5.02;80.88184;95532.08;;;;
2021/01/11 04:14:25;;;;;;;42.35;16.7;;;;;;;-5.02;80.88184;95532.08;;;;
2021/01/11 04:15:25;;;;;;;42.35;16.7;;;;;;;-5.02;80.88184;95532.08;;;;
2021/01/11 04:16:26;;;;;;;42.35;16.7;;;;;;;-5.02;80.88184;95532.08;;;;
2021/01/11 04:17:26;;;;;;;42.35;16.7;;;;;;;-5.02;80.88184;95532.08;;;;
2021/01/11 04:18:27;;;;;;;42.35;16.7;;;;;;;-5.02;80.88184;95532.08;;;;
2021/01/11 04:19:27;;;;;;;41.89999;17.5;;;;;;;-5.05;80.95801;95532.33;;;;
2021/01/11 04:20:28;;;;;;;41.89999;17.5;;;;;;;-5.05;80.95801;95532.33;;;;
2021/01/11 04:21:29;;;;;;;41.89999;17.5;;;;;;;-5.05;80.95801;95532.33;;;;
2021/01/11 04:22:29;;;;;;;41.89999;17.5;;;;;;;-5.05;80.95801;95532.33;;;;
2021/01/11 04:23:30;;;;;;;41.89999;17.5;;;;;;;-5.05;80.95801;95532.33;;;;
2021/01/11 04:24:30;;;;;;;41.89999;17.5;;;;;;;-5.05;80.95801;95532.33;;;;
2021/01/11 04:25:30;;;;;;;41.89999;17.5;;;;;;;-5.05;80.95801;95532.33;;;;
2021/01/11 04:26:31;;;;;;;41.89999;17.5;;;;;;;-5.05;80.95801;95532.33;;;;
2021/01/11 04:27:32;;;;;;;41.89999;17.5;;;;;;;-5.05;80.95801;95532.33;;;;
2021/01/11 04:28:32;;;;;;;41.89999;17.5;;;;;;;-5.05;80.95801;95532.33;;;;
2021/01/11 04:29:33;;;;;;;41.89999;17.5;;;;;;;-5.05;80.95801;95532.33;;;;
2021/01/11 04:30:33;;;;;;;44.5;18.7;;;;;;;-5.06;81.00977;95527.15;;;;
2021/01/11 04:31:34;;;;;;;44.5;18.7;;;;;;;-5.06;81.00977;95527.15;;;;
2021/01/11 04:32:34;;;;;;;44.5;18.7;;;;;;;-5.06;81.00977;95527.15;;;;
2021/01/11 04:33:35;;;;;;;44.5;18.7;;;;;;;-5.06;81.00977;95527.15;;;;
2021/01/11 04:34:36;;;;;;;44.5;18.7;;;;;;;-5.06;81.00977;95527.15;;;;
2021/01/11 04:35:37;;;;;;;44.5;18.7;;;;;;;-5.06;81.00977;95527.15;;;;
2021/01/11 04:36:37;;;;;;;44.5;18.7;;;;;;;-5.06;81.00977;95527.15;;;;
2021/01/11 04:37:38;;;;;;;44.5;18.7;;;;;;;-5.06;81.00977;95527.15;;;;
2021/01/11 04:38:41;;;;;;;44.5;18.7;;;;;;;-5.06;81.00977;95527.15;;;;
2021/01/11 04:39:42;;;;;;;44.5;18.7;;;;;;;-5.06;81.00977;95527.15;;;;
2021/01/11 04:40:42;;;;;;;43.39999;17.55;;;;;;;-4.99;81.41406;95526.95;;;;
2021/01/11 04:41:43;;;;;;;43.39999;17.55;;;;;;;-4.99;81.41406;95526.95;;;;
2021/01/11 04:42:45;;;;;;;43.39999;17.55;;;;;;;-4.99;81.41406;95526.95;;;;
2021/01/11 04:43:53;;;;;;;43.39999;17.55;;;;;;;-4.99;81.41406;95526.95;;;;
2021/01/11 04:44:54;;;;;;;43.39999;17.55;;;;;;;-4.99;81.41406;95526.95;;;;
2021/01/11 04:45:56;;;;;;;43.39999;17.55;;;;;;;-4.99;81.41406;95526.95;;;;
2021/01/11 04:46:57;;;;;;;43.39999;17.55;;;;;;;-4.99;81.41406;95526.95;;;;
2021/01/11 04:47:59;;;;;;;43.39999;17.55;;;;;;;-4.99;81.41406;95526.95;;;;
2021/01/11 04:49:00;;;;;;;43.39999;17.55;;;;;;;-4.99;81.41406;95526.95;;;;
2021/01/11 04:50:01;;;;;;;43.39999;17.55;;;;;;;-4.99;81.41406;95526.95;;;;
2021/01/11 04:51:03;;;;;;;43.39999;17.55;;;;;;;-4.99;81.41406;95526.95;;;;
2021/01/11 04:52:05;;;;;;;43.45;17.2;;;;;;;-4.88;81.37207;95533;;;;
2021/01/11 04:53:07;;;;;;;43.45;17.2;;;;;;;-4.88;81.37207;95533;;;;
2021/01/11 04:54:10;;;;;;;43.45;17.2;;;;;;;-4.88;81.37207;95533;;;;
2021/01/11 04:55:12;;;;;;;43.45;17.2;;;;;;;-4.88;81.37207;95533;;;;
2021/01/11 04:56:14;;;;;;;43.45;17.2;;;;;;;-4.88;81.37207;95533;;;;
2021/01/11 04:57:15;;;;;;;43.45;17.2;;;;;;;-4.88;81.37207;95533;;;;
2021/01/11 04:58:16;;;;;;;43.45;17.2;;;;;;;-4.88;81.37207;95533;;;;
2021/01/11 04:59:16;;;;;;;43.45;17.2;;;;;;;-4.88;81.37207;95533;;;;
2021/01/11 05:00:19;;;;;;;43.45;17.2;;;;;;;-4.88;81.37207;95533;;;;
2021/01/11 05:01:23;;;;;;;43.45;17.2;;;;;;;-4.88;81.37207;95533;;;;
2021/01/11 05:02:25;;;;;;;42.69999;16.9;;;;;;;-4.83;81.43457;95534.73;;;;
2021/01/11 05:03:28;;;;;;;42.69999;16.9;;;;;;;-4.83;81.43457;95534.73;;;;
2021/01/11 05:04:30;;;;;;;42.69999;16.9;;;;;;;-4.83;81.43457;95534.73;;;;
2021/01/11 05:05:30;;;;;;;42.69999;16.9;;;;;;;-4.83;81.43457;95534.73;;;;
2021/01/11 05:06:33;;;;;;;42.69999;16.9;;;;;;;-4.83;81.43457;95534.73;;;;
2021/01/11 05:07:34;;;;;;;42.69999;16.9;;;;;;;-4.83;81.43457;95534.73;;;;
2021/01/11 05:08:35;;;;;;;42.69999;16.9;;;;;;;-4.83;81.43457;95534.73;;;;
2021/01/11 05:09:35;;;;;;;42.69999;16.9;;;;;;;-4.83;81.43457;95534.73;;;;
2021/01/11 05:10:36;;;;;;;42.69999;16.9;;;;;;;-4.83;81.43457;95534.73;;;;
2021/01/11 05:11:38;;;;;;;42.69999;16.9;;;;;;;-4.83;81.43457;95534.73;;;;
2021/01/11 05:12:39;;;;;;;35.95;15.35;;;;;;;-4.82;81.49805;95526.26;;;;
2021/01/11 05:13:39;;;;;;;35.95;15.35;;;;;;;-4.82;81.49805;95526.26;;;;
2021/01/11 05:14:40;;;;;;;35.95;15.35;;;;;;;-4.82;81.49805;95526.26;;;;
2021/01/11 05:15:41;;;;;;;35.95;15.35;;;;;;;-4.82;81.49805;95526.26;;;;
2021/01/11 05:16:42;;;;;;;35.95;15.35;;;;;;;-4.82;81.49805;95526.26;;;;
2021/01/11 05:17:57;;;;;;;35.95;15.35;;;;;;;-4.82;81.49805;95526.26;;;;
2021/01/11 05:19:01;;;;;;;35.95;15.35;;;;;;;-4.82;81.49805;95526.26;;;;
2021/01/11 05:20:21;;;;;;;35.95;15.35;;;;;;;-4.82;81.49805;95526.26;;;;
2021/01/11 05:21:24;;;;;;;35.95;15.35;;;;;;;-4.82;81.49805;95526.26;;;;
2021/01/11 05:22:47;;;;;;;35.95;15.35;;;;;;;-4.82;81.49805;95526.26;;;;
2021/01/11 05:23:47;;;;;;;0;0;;;;;;;0;0;0;;;;
2021/01/11 05:24:48;;;;;;;0;0;;;;;;;0;0;0;;;;
2021/01/11 05:25:48;;;;;;;0;0;;;;;;;0;0;0;;;;
2021/01/11 05:26:49;;;;;;;0;0;;;;;;;0;0;0;;;;
2021/01/11 05:27:50;;;;;;;0;0;;;;;;;0;0;0;;;;
2021/01/11 05:29:09;;;;;;;0;0;;;;;;;0;0;0;;;;
2021/01/11 05:30:17;;;;;;;0;0;;;;;;;0;0;0;;;;
2021/01/11 05:31:30;;;;;;;0;0;;;;;;;0;0;0;;;;
2021/01/11 05:32:50;;;;;;;0;0;;;;;;;0;0;0;;;;
2021/01/11 05:33:51;;;;;;;0;0;;;;;;;0;0;0;;;;
2021/01/11 05:34:52;;;;;;;0;0;;;;;;;0;0;0;;;;
2021/01/11 05:35:53;;;;;;;0;0;;;;;;;0;0;0;;;;
2021/01/11 05:37:04;;;;;;;0;0;;;;;;;0;0;0;;;;
2021/01/11 05:38:04;;;;;;;0;0;;;;;;;0;0;0;;;;
2021/01/11 05:39:14;;;;;;;0;0;;;;;;;0;0;0;;;;
2021/01/11 05:40:15;;;;;;;0;0;;;;;;;0;0;0;;;;
2021/01/11 05:41:17;;;;;;;0;0;;;;;;;0;0;0;;;;
2021/01/11 05:42:19;;;;;;;0;0;;;;;;;0;0;0;;;;
2021/01/11 05:43:20;;;;;;;0;0;;;;;;;0;0;0;;;;
2021/01/11 05:44:22;;;;;;;0;0;;;;;;;0;0;0;;;;
2021/01/11 05:45:22;;;;;;;0;0;;;;;;;0;0;0;;;;
2021/01/11 05:46:24;;;;;;;0;0;;;;;;;0;0;0;;;;
2021/01/11 05:47:26;;;;;;;0;0;;;;;;;0;0;0;;;;
2021/01/11 05:48:26;;;;;;;0;0;;;;;;;0;0;0;;;;
2021/01/11 05:49:28;;;;;;;0;0;;;;;;;0;0;0;;;;
2021/01/11 05:50:28;;;;;;;0;0;;;;;;;0;0;0;;;;
2021/01/11 05:51:31;;;;;;;0;0;;;;;;;0;0;0;;;;
2021/01/11 05:52:33;;;;;;;0;0;;;;;;;0;0;0;;;;
2021/01/11 05:53:34;;;;;;;0;0;;;;;;;0;0;0;;;;
2021/01/11 05:54:40;;;;;;;0;0;;;;;;;0;0;0;;;;
2021/01/11 05:55:40;;;;;;;0;0;;;;;;;0;0;0;;;;
2021/01/11 05:56:41;;;;;;;0;0;;;;;;;0;0;0;;;;
2021/01/11 05:57:58;;;;;;;0;0;;;;;;;0;0;0;;;;
2021/01/11 05:59:00;;;;;;;0;0;;;;;;;0;0;0;;;;